Time;durP1;ratioP1;P1;durP2;ratioP2;P2;SDS_P1;SDS_P2;PMS_P1;PMS_P2;Temp;Humidity;BMP_temperature;BMP_pressure;BME280_temperature;BME280_humidity;BME280_pressure;Samples;Min_cycle;Max_cycle;Signal;HPM_P1;HPM_P2
2023/03/30 00:01:38;;;;;;;1.83;0.73;;;17.30;78.60;;;;;;4939437;29;20201;-93
2023/03/30 00:04:10;;;;;;;1.57;0.80;;;17.30;74.90;;;;;;4938922;29;20208;-92
2023/03/30 00:06:41;;;;;;;2.63;0.87;;;17.30;74.10;;;;;;4952111;29;20316;-91
2023/03/30 00:09:11;;;;;;;2.23;0.87;;;17.30;72.30;;;;;;4957261;28;20253;-92
2023/03/30 00:11:44;;;;;;;1.50;0.60;;;17.00;71.10;;;;;;4957392;28;20234;-92
2023/03/30 00:14:18;;;;;;;1.93;0.70;;;16.60;71.20;;;;;;4957229;28;20303;-93
2023/03/30 00:16:49;;;;;;;2.10;0.83;;;16.40;71.00;;;;;;4957691;28;20220;-93
2023/03/30 00:19:20;;;;;;;2.57;0.80;;;16.30;72.30;;;;;;4956569;28;20222;-92
2023/03/30 00:21:51;;;;;;;2.13;0.83;;;16.30;74.40;;;;;;4957454;28;20246;-92
2023/03/30 00:24:21;;;;;;;1.67;0.80;;;16.30;73.40;;;;;;4958279;28;20302;-93
2023/03/30 00:26:52;;;;;;;1.50;0.90;;;16.40;72.30;;;;;;4957872;28;20243;-92
2023/03/30 00:29:24;;;;;;;2.23;0.60;;;16.50;75.00;;;;;;4947708;28;20247;-92
2023/03/30 00:31:55;;;;;;;1.97;0.90;;;16.50;72.70;;;;;;4937615;29;20291;-92
2023/03/30 00:34:26;;;;;;;2.83;1.17;;;16.40;74.70;;;;;;4937941;29;20255;-93
2023/03/30 00:36:56;;;;;;;0.90;0.80;;;16.20;74.80;;;;;;4938123;29;20211;-94
2023/03/30 00:39:27;;;;;;;1.50;0.70;;;16.10;72.90;;;;;;4937386;29;20658;-91
2023/03/30 00:41:58;;;;;;;1.10;0.90;;;16.00;74.40;;;;;;4937598;29;20658;-91
2023/03/30 00:45:07;;;;;;;1.50;0.80;;;15.80;72.50;;;;;;4937754;29;20219;-92
2023/03/30 00:47:42;;;;;;;1.27;1.00;;;15.90;74.40;;;;;;4937100;29;20212;-94
2023/03/30 00:50:20;;;;;;;2.50;0.60;;;16.00;75.50;;;;;;4933895;29;20208;-93
2023/03/30 00:52:55;;;;;;;1.17;0.60;;;15.90;71.40;;;;;;4937728;29;20227;-91
2023/03/30 00:55:30;;;;;;;1.37;0.80;;;15.50;72.60;;;;;;4941967;29;20287;-91
2023/03/30 00:58:02;;;;;;;1.00;0.87;;;15.50;72.70;;;;;;4940450;29;20700;-90
2023/03/30 01:00:37;;;;;;;1.60;0.77;;;15.40;71.20;;;;;;4941636;28;20200;-90
2023/03/30 01:03:18;;;;;;;1.27;0.60;;;15.40;68.40;;;;;;4942628;29;20258;-90
2023/03/30 01:05:50;;;;;;;2.40;0.90;;;15.20;69.80;;;;;;4942054;29;20212;-90
2023/03/30 01:08:22;;;;;;;0.80;0.80;;;15.20;68.30;;;;;;4940706;29;20251;-90
2023/03/30 01:10:55;;;;;;;1.73;0.90;;;15.20;70.60;;;;;;4941379;29;20295;-92
2023/03/30 01:13:25;;;;;;;1.73;0.87;;;15.10;69.10;;;;;;4937432;29;20323;-93
2023/03/30 01:16:14;;;;;;;3.63;0.90;;;15.10;68.10;;;;;;4930450;29;20292;-92
2023/03/30 01:18:53;;;;;;;1.13;0.67;;;15.10;67.70;;;;;;4942111;29;20230;-91
2023/03/30 01:22:03;;;;;;;1.33;0.60;;;15.00;69.10;;;;;;4942453;29;20215;-92
2023/03/30 01:25:04;;;;;;;1.37;0.50;;;14.90;66.70;;;;;;4939464;29;20299;-92
2023/03/30 01:28:07;;;;;;;2.50;0.80;;;14.90;67.90;;;;;;4924910;29;20259;-92
2023/03/30 01:30:59;;;;;;;1.03;0.60;;;14.90;69.30;;;;;;4923480;29;20760;-91
2023/03/30 01:34:16;;;;;;;1.07;0.70;;;14.80;67.10;;;;;;4955026;28;20370;-92
2023/03/30 01:37:18;;;;;;;4.00;0.93;;;14.80;68.70;;;;;;4908413;29;20720;-93
2023/03/30 01:39:57;;;;;;;0.90;0.60;;;14.70;67.00;;;;;;4907300;29;20295;-87
2023/03/30 01:42:37;;;;;;;0.83;0.70;;;14.60;67.80;;;;;;4926361;29;20255;-89
2023/03/30 01:45:15;;;;;;;1.13;0.73;;;14.50;66.60;;;;;;4939422;29;20243;-91
2023/03/30 01:47:54;;;;;;;2.30;0.70;;;14.20;68.90;;;;;;4939452;29;20211;-92
2023/03/30 01:50:29;;;;;;;8.83;0.80;;;14.10;71.70;;;;;;4940798;29;20536;-91
2023/03/30 01:53:03;;;;;;;1.23;1.10;;;14.00;69.10;;;;;;4941439;29;20291;-91
2023/03/30 01:55:39;;;;;;;1.50;0.93;;;13.80;72.00;;;;;;4941442;29;20246;-91
2023/03/30 01:58:17;;;;;;;1.40;1.07;;;13.70;75.60;;;;;;4934384;29;20216;-94
2023/03/30 02:00:50;;;;;;;0.80;0.70;;;13.50;70.40;;;;;;4943575;29;20239;-94
2023/03/30 02:03:26;;;;;;;1.90;1.10;;;13.40;69.20;;;;;;4942392;29;20246;-95
2023/03/30 02:06:09;;;;;;;1.10;0.70;;;13.30;73.50;;;;;;4933505;29;20209;-94
2023/03/30 02:08:41;;;;;;;3.33;0.87;;;13.10;79.60;;;;;;4955637;29;20201;-95
2023/03/30 02:11:14;;;;;;;1.30;0.80;;;12.90;78.60;;;;;;4955440;29;20270;-95
2023/03/30 02:13:47;;;;;;;1.03;0.63;;;12.70;80.70;;;;;;4957807;29;20328;-94
2023/03/30 02:16:22;;;;;;;2.20;0.80;;;12.60;76.20;;;;;;4940426;29;20255;-92
2023/03/30 02:18:54;;;;;;;0.93;0.60;;;12.50;78.80;;;;;;4955796;29;20623;-92
2023/03/30 02:21:26;;;;;;;3.73;0.77;;;12.50;77.90;;;;;;4954027;29;20216;-92
2023/03/30 02:23:58;;;;;;;1.23;0.77;;;12.40;79.00;;;;;;4944022;29;20201;-92
2023/03/30 02:26:32;;;;;;;0.77;0.60;;;12.30;82.10;;;;;;4946224;29;20264;-91
2023/03/30 02:29:03;;;;;;;1.90;0.80;;;12.10;79.60;;;;;;4945143;29;20303;-91
2023/03/30 02:31:34;;;;;;;2.40;1.00;;;12.10;80.60;;;;;;4943632;29;20240;-91
2023/03/30 02:34:15;;;;;;;1.00;0.70;;;12.00;79.80;;;;;;4945553;29;20248;-92
2023/03/30 02:37:15;;;;;;;4.30;1.20;;;11.80;83.60;;;;;;4939453;29;20679;-92
2023/03/30 02:39:57;;;;;;;7.20;1.43;;;11.70;82.10;;;;;;4942428;29;20216;-92
2023/03/30 02:42:52;;;;;;;0.93;0.90;;;11.70;85.10;;;;;;4941073;29;20212;-92
2023/03/30 02:45:35;;;;;;;2.83;1.20;;;11.60;81.50;;;;;;4940135;29;20662;-93
2023/03/30 02:48:17;;;;;;;1.67;0.80;;;11.50;85.60;;;;;;4928353;29;20216;-94
2023/03/30 02:50:55;;;;;;;1.87;0.93;;;11.30;86.80;;;;;;4937864;29;20209;-95
2023/03/30 02:53:33;;;;;;;1.87;1.20;;;11.10;89.10;;;;;;4923979;29;20229;-93
2023/03/30 02:56:10;;;;;;;1.73;0.90;;;10.90;89.50;;;;;;4940047;29;20218;-93
2023/03/30 02:58:50;;;;;;;4.03;1.00;;;10.70;89.50;;;;;;4933216;29;20264;-94
2023/03/30 03:01:27;;;;;;;3.23;1.23;;;10.60;90.60;;;;;;4935204;29;20212;-94
2023/03/30 03:04:00;;;;;;;3.17;1.30;;;10.50;90.90;;;;;;4929690;29;20208;-95
2023/03/30 03:06:32;;;;;;;5.10;1.10;;;10.40;91.30;;;;;;4939281;29;20236;-94
2023/03/30 03:09:04;;;;;;;5.43;1.20;;;10.30;92.60;;;;;;4939406;29;20272;-94
2023/03/30 03:11:35;;;;;;;5.70;1.53;;;10.10;92.20;;;;;;4940050;29;20205;-94
2023/03/30 03:14:08;;;;;;;1.90;1.17;;;10.00;92.60;;;;;;4941227;29;20228;-95
2023/03/30 03:16:40;;;;;;;2.27;0.97;;;10.00;92.10;;;;;;4942102;29;20209;-94
2023/03/30 03:19:11;;;;;;;3.30;1.10;;;9.90;92.30;;;;;;4932351;29;20225;-93
2023/03/30 03:21:43;;;;;;;2.47;1.00;;;9.80;93.20;;;;;;4940989;29;20247;-91
2023/03/30 03:24:16;;;;;;;1.23;1.10;;;9.60;94.20;;;;;;4939863;29;20236;-94
2023/03/30 03:26:47;;;;;;;5.27;1.00;;;9.60;94.20;;;;;;4939592;29;20224;-93
2023/03/30 03:29:20;;;;;;;6.63;1.40;;;9.60;93.90;;;;;;4937244;29;20243;-92
2023/03/30 03:31:51;;;;;;;4.53;1.47;;;9.50;95.50;;;;;;4941848;29;20296;-92
2023/03/30 03:34:24;;;;;;;8.53;1.70;;;9.40;96.50;;;;;;4957686;29;20275;-92
2023/03/30 03:36:56;;;;;;;7.47;1.60;;;9.30;97.20;;;;;;4946624;28;20228;-91
2023/03/30 03:39:27;;;;;;;2.90;1.57;;;9.20;97.50;;;;;;4940756;29;20222;-92
2023/03/30 03:41:58;;;;;;;8.13;1.43;;;9.20;97.00;;;;;;4956643;29;20216;-90
2023/03/30 03:44:30;;;;;;;8.57;1.63;;;9.10;98.00;;;;;;4955304;29;20235;-93
2023/03/30 03:47:01;;;;;;;8.27;1.90;;;9.00;98.60;;;;;;4948533;29;20220;-92
2023/03/30 03:49:32;;;;;;;6.80;1.73;;;8.90;99.10;;;;;;4949277;29;20683;-93
2023/03/30 03:52:03;;;;;;;8.47;1.40;;;8.80;99.90;;;;;;4949891;29;20204;-95
2023/03/30 03:54:35;;;;;;;9.80;1.77;;;8.80;99.90;;;;;;4934969;29;20271;-94
2023/03/30 03:57:06;;;;;;;3.87;1.33;;;8.70;99.90;;;;;;4936078;29;20304;-94
2023/03/30 03:59:40;;;;;;;6.43;1.27;;;8.70;99.90;;;;;;4944984;29;20241;-94
2023/03/30 04:02:11;;;;;;;8.10;1.40;;;8.70;99.90;;;;;;4945764;29;20223;-94
2023/03/30 04:04:43;;;;;;;8.47;1.50;;;8.60;99.90;;;;;;4957545;29;20203;-95
2023/03/30 04:07:13;;;;;;;1.57;1.13;;;8.50;99.90;;;;;;4964250;28;20287;-94
2023/03/30 04:09:45;;;;;;;6.63;1.30;;;8.40;99.90;;;;;;4952607;28;20240;-94
2023/03/30 04:12:15;;;;;;;3.50;0.93;;;8.40;99.90;;;;;;4923757;29;20223;-95
2023/03/30 04:14:51;;;;;;;3.27;1.20;;;8.30;99.90;;;;;;4939896;29;20685;-94
2023/03/30 04:17:22;;;;;;;4.23;1.60;;;8.30;99.90;;;;;;4941545;29;20232;-93
2023/03/30 04:19:55;;;;;;;2.40;1.43;;;8.30;99.90;;;;;;4941818;29;20212;-95
2023/03/30 04:22:26;;;;;;;3.43;1.37;;;8.30;99.90;;;;;;4941003;29;20212;-94
2023/03/30 04:24:58;;;;;;;7.57;1.10;;;8.20;99.90;;;;;;4937116;29;20209;-94
2023/03/30 04:27:29;;;;;;;1.70;1.30;;;8.10;99.90;;;;;;4937509;29;20288;-92
2023/03/30 04:30:02;;;;;;;3.70;0.90;;;8.10;99.90;;;;;;4938887;29;20254;-93
2023/03/30 04:32:33;;;;;;;3.13;1.00;;;8.10;99.90;;;;;;4939651;29;20236;-93
2023/03/30 04:35:05;;;;;;;1.73;1.10;;;8.10;99.90;;;;;;4940624;29;20319;-92
2023/03/30 04:37:37;;;;;;;2.83;1.47;;;8.00;99.90;;;;;;4938116;29;20244;-93
2023/03/30 04:40:10;;;;;;;1.93;1.30;;;8.00;99.90;;;;;;4924346;29;20205;-92
2023/03/30 04:42:41;;;;;;;4.10;3.53;;;8.00;99.90;;;;;;4926842;29;20284;-91
2023/03/30 04:45:15;;;;;;;5.97;3.30;;;8.00;99.90;;;;;;4925557;29;20237;-91
2023/03/30 04:47:46;;;;;;;2.80;2.13;;;8.00;99.90;;;;;;4946169;29;20338;-91
2023/03/30 04:50:18;;;;;;;3.80;2.63;;;7.90;99.90;;;;;;4949833;29;20243;-92
2023/03/30 04:52:49;;;;;;;5.70;2.70;;;7.80;99.90;;;;;;4946318;29;20685;-91
2023/03/30 04:55:20;;;;;;;2.70;2.50;;;7.80;99.90;;;;;;4949758;29;20263;-93
2023/03/30 04:57:52;;;;;;;5.37;4.60;;;7.80;99.90;;;;;;4955373;29;20236;-93
2023/03/30 05:00:26;;;;;;;6.60;5.37;;;7.70;99.90;;;;;;4956823;29;20244;-94
2023/03/30 05:02:57;;;;;;;8.20;5.60;;;7.70;99.90;;;;;;4948404;29;20283;-93
2023/03/30 05:05:29;;;;;;;5.60;4.60;;;7.60;99.90;;;;;;4943751;29;20212;-94
2023/03/30 05:08:00;;;;;;;7.73;5.87;;;7.60;99.90;;;;;;4943589;29;20268;-93
2023/03/30 05:10:30;;;;;;;16.07;13.20;;;7.60;99.90;;;;;;4945077;29;20212;-93
2023/03/30 05:13:02;;;;;;;15.87;13.10;;;7.60;99.90;;;;;;4944988;29;20228;-94
2023/03/30 05:15:35;;;;;;;16.70;10.83;;;7.50;99.90;;;;;;4945124;29;20263;-93
2023/03/30 05:18:06;;;;;;;9.47;7.97;;;7.50;99.90;;;;;;4943769;29;20209;-93
2023/03/30 05:20:38;;;;;;;8.47;6.13;;;7.50;99.90;;;;;;4950373;29;20205;-94
2023/03/30 05:23:10;;;;;;;10.60;7.83;;;7.50;99.90;;;;;;4945693;29;20209;-94
2023/03/30 05:25:45;;;;;;;5.97;5.37;;;7.40;99.90;;;;;;4944296;29;20204;-94
2023/03/30 05:28:16;;;;;;;8.33;5.07;;;7.40;99.90;;;;;;4943071;29;20204;-94
2023/03/30 05:30:54;;;;;;;4.50;2.70;;;7.40;99.90;;;;;;4939479;29;20236;-92
2023/03/30 05:33:28;;;;;;;1.63;1.33;;;7.40;99.90;;;;;;4929052;29;20216;-93
2023/03/30 05:35:59;;;;;;;2.87;1.30;;;7.30;99.90;;;;;;4939591;29;20239;-92
2023/03/30 05:38:30;;;;;;;1.57;1.00;;;7.40;99.90;;;;;;4938822;29;20204;-91
2023/03/30 05:41:01;;;;;;;3.43;0.93;;;7.30;99.90;;;;;;4942212;29;20216;-91
2023/03/30 05:43:32;;;;;;;1.60;1.40;;;7.30;99.90;;;;;;4943901;29;20200;-93
2023/03/30 05:46:06;;;;;;;2.17;1.47;;;7.30;99.90;;;;;;4945767;29;20267;-93
2023/03/30 05:48:37;;;;;;;1.40;1.30;;;7.30;99.90;;;;;;4948880;29;20264;-91
2023/03/30 05:51:08;;;;;;;2.73;2.50;;;7.20;99.90;;;;;;4956745;29;20227;-89
2023/03/30 05:53:39;;;;;;;4.67;3.90;;;7.20;99.90;;;;;;4961610;28;20203;-91
2023/03/30 05:56:11;;;;;;;7.63;6.83;;;7.10;99.90;;;;;;4960711;29;20203;-91
2023/03/30 05:58:42;;;;;;;4.60;4.20;;;7.10;99.90;;;;;;4955216;29;20201;-92
2023/03/30 06:01:14;;;;;;;2.57;2.03;;;7.00;99.90;;;;;;4941827;29;20201;-93
2023/03/30 06:03:45;;;;;;;3.03;1.70;;;7.00;99.90;;;;;;4926098;29;20690;-94
2023/03/30 06:06:18;;;;;;;2.93;1.37;;;7.00;99.90;;;;;;4936626;29;20670;-94
2023/03/30 06:08:50;;;;;;;1.80;1.10;;;6.90;99.90;;;;;;4942970;29;20252;-94
2023/03/30 06:11:22;;;;;;;2.17;1.30;;;6.90;99.90;;;;;;4944595;29;20239;-94
2023/03/30 06:13:53;;;;;;;1.67;1.30;;;6.90;99.90;;;;;;4946238;29;20247;-93
2023/03/30 06:16:27;;;;;;;3.57;1.17;;;6.80;99.90;;;;;;4937353;29;20224;-93
2023/03/30 06:18:58;;;;;;;3.93;1.30;;;6.70;99.90;;;;;;4932731;29;20654;-92
2023/03/30 06:21:30;;;;;;;4.03;1.30;;;6.70;99.90;;;;;;4940585;29;20255;-94
2023/03/30 06:24:02;;;;;;;7.10;1.40;;;6.70;99.90;;;;;;4947732;29;20269;-93
2023/03/30 06:26:33;;;;;;;2.67;1.37;;;6.70;99.90;;;;;;4931146;29;21186;-91
2023/03/30 06:29:05;;;;;;;7.57;1.40;;;6.70;99.90;;;;;;4940150;29;20212;-94
2023/03/30 06:31:37;;;;;;;1.70;1.00;;;6.70;99.90;;;;;;4939279;29;20254;-93
2023/03/30 06:34:08;;;;;;;1.83;1.03;;;6.60;99.90;;;;;;4940386;29;20559;-94
2023/03/30 06:36:39;;;;;;;1.67;1.10;;;6.60;99.90;;;;;;4939143;29;20295;-91
2023/03/30 06:39:16;;;;;;;3.50;1.13;;;6.60;99.90;;;;;;4938478;29;20308;-91
2023/03/30 06:41:47;;;;;;;1.87;1.40;;;6.60;99.90;;;;;;4939587;29;20295;-94
2023/03/30 06:44:18;;;;;;;2.83;1.27;;;6.50;99.90;;;;;;4939791;29;20279;-94
2023/03/30 06:46:52;;;;;;;2.97;1.13;;;6.50;99.90;;;;;;4939697;29;20215;-93
2023/03/30 06:49:23;;;;;;;5.23;1.40;;;6.50;99.90;;;;;;4938911;29;20691;-92
2023/03/30 06:51:54;;;;;;;1.47;1.27;;;6.50;99.90;;;;;;4938357;29;20272;-92
2023/03/30 06:54:26;;;;;;;2.03;1.20;;;6.40;99.90;;;;;;4939088;29;20216;-92
2023/03/30 06:56:58;;;;;;;2.80;1.13;;;6.40;99.90;;;;;;4939259;29;20306;-90
2023/03/30 06:59:29;;;;;;;4.10;1.50;;;6.30;99.90;;;;;;4938450;29;20205;-92
2023/03/30 07:02:05;;;;;;;3.20;1.30;;;6.30;99.90;;;;;;4939243;29;20374;-92
2023/03/30 07:04:36;;;;;;;1.93;1.40;;;6.20;99.90;;;;;;4938994;29;20291;-93
2023/03/30 07:07:07;;;;;;;2.00;1.30;;;6.20;99.90;;;;;;4939932;29;20204;-94
2023/03/30 07:09:38;;;;;;;4.37;1.37;;;6.10;99.90;;;;;;4938665;29;20299;-94
2023/03/30 07:12:09;;;;;;;3.97;1.40;;;6.10;99.90;;;;;;4938988;29;20670;-93
2023/03/30 07:14:40;;;;;;;3.10;1.37;;;6.00;99.90;;;;;;4939293;29;20299;-93
2023/03/30 07:17:13;;;;;;;2.93;1.63;;;5.90;99.90;;;;;;4940228;29;20750;-93
2023/03/30 07:19:44;;;;;;;3.33;1.40;;;5.90;99.90;;;;;;4925029;29;20236;-95
2023/03/30 07:22:16;;;;;;;2.23;1.30;;;5.90;99.90;;;;;;4940120;29;20218;-94
2023/03/30 07:24:48;;;;;;;3.00;1.30;;;5.80;99.90;;;;;;4940449;29;20291;-94
2023/03/30 07:27:19;;;;;;;1.47;1.20;;;5.80;99.90;;;;;;4937511;29;20239;-93
2023/03/30 07:29:54;;;;;;;2.23;1.50;;;5.70;99.90;;;;;;4939529;29;20259;-94
2023/03/30 07:32:35;;;;;;;3.20;1.30;;;5.70;99.90;;;;;;4940368;29;20211;-94
2023/03/30 07:35:07;;;;;;;2.20;1.60;;;5.60;99.90;;;;;;4941186;29;20299;-94
2023/03/30 07:37:39;;;;;;;2.93;1.30;;;5.60;99.90;;;;;;4940867;29;20295;-94
2023/03/30 07:40:11;;;;;;;2.37;1.60;;;5.60;99.90;;;;;;4943840;29;20291;-93
2023/03/30 07:42:42;;;;;;;2.33;1.43;;;5.60;99.90;;;;;;4958459;29;20264;-92
2023/03/30 07:45:14;;;;;;;1.63;1.37;;;5.60;99.90;;;;;;4958209;29;20192;-92
2023/03/30 07:47:47;;;;;;;2.33;1.40;;;5.60;99.90;;;;;;4959493;29;20205;-92
2023/03/30 07:50:19;;;;;;;2.40;1.50;;;5.60;99.90;;;;;;4959656;29;20199;-92
2023/03/30 07:52:52;;;;;;;1.57;1.47;;;5.60;99.90;;;;;;4958715;29;20223;-91
2023/03/30 07:55:23;;;;;;;3.30;1.73;;;5.60;99.90;;;;;;4957030;29;20232;-92
2023/03/30 07:57:56;;;;;;;2.97;1.37;;;5.60;99.90;;;;;;4942278;29;20307;-91
2023/03/30 08:00:27;;;;;;;3.53;1.40;;;5.50;99.90;;;;;;4956277;29;20196;-91
2023/03/30 08:03:00;;;;;;;2.70;1.47;;;5.40;99.90;;;;;;4960116;29;20192;-90
2023/03/30 08:05:32;;;;;;;3.10;1.50;;;5.40;99.90;;;;;;4951656;29;20259;-92
2023/03/30 08:08:03;;;;;;;4.13;1.50;;;5.30;99.90;;;;;;4939450;29;20291;-91
2023/03/30 08:10:35;;;;;;;3.10;1.23;;;5.40;99.90;;;;;;4938649;29;20291;-93
2023/03/30 08:13:07;;;;;;;2.87;1.17;;;5.30;99.90;;;;;;4939490;28;20217;-93
2023/03/30 08:15:38;;;;;;;3.03;1.20;;;5.30;99.90;;;;;;4938706;29;20330;-93
2023/03/30 08:18:11;;;;;;;2.53;1.40;;;5.20;99.90;;;;;;4939587;29;20287;-93
2023/03/30 08:20:44;;;;;;;2.30;1.30;;;5.10;99.90;;;;;;4941020;29;20209;-93
2023/03/30 08:23:15;;;;;;;2.07;1.30;;;5.10;99.90;;;;;;4940724;29;20212;-93
2023/03/30 08:25:50;;;;;;;5.23;1.37;;;5.10;99.90;;;;;;4940740;29;20258;-93
2023/03/30 08:28:22;;;;;;;2.50;1.40;;;5.10;99.90;;;;;;4951502;29;20191;-93
2023/03/30 08:30:55;;;;;;;3.13;1.40;;;5.10;99.90;;;;;;4955971;29;20227;-93
2023/03/30 08:33:28;;;;;;;1.60;1.27;;;5.10;99.90;;;;;;4956030;29;20224;-92
2023/03/30 08:35:59;;;;;;;2.87;1.20;;;5.10;99.90;;;;;;4951232;29;20279;-93
2023/03/30 08:38:30;;;;;;;1.80;1.27;;;5.10;99.90;;;;;;4960632;28;20214;-93
2023/03/30 08:41:02;;;;;;;1.37;1.27;;;5.20;99.90;;;;;;4944780;28;20215;-93
2023/03/30 08:43:51;;;;;;;3.03;1.47;;;5.10;99.90;;;;;;4939422;29;20709;-92
2023/03/30 08:46:22;;;;;;;1.80;1.20;;;5.10;99.90;;;;;;4939140;29;20303;-91
2023/03/30 08:48:59;;;;;;;3.10;1.30;;;5.20;99.90;;;;;;4938836;29;20231;-92
2023/03/30 08:51:33;;;;;;;3.90;1.53;;;5.30;99.90;;;;;;4939117;29;20236;-91
2023/03/30 08:54:07;;;;;;;1.63;1.30;;;5.40;99.90;;;;;;4938553;29;20287;-91
2023/03/30 08:56:43;;;;;;;1.57;1.20;;;5.50;99.90;;;;;;4938592;29;20239;-92
2023/03/30 08:59:24;;;;;;;2.87;1.63;;;5.50;99.90;;;;;;4936298;29;20204;-91
2023/03/30 09:01:59;;;;;;;3.93;1.43;;;5.50;99.90;;;;;;4937996;29;20294;-92
2023/03/30 09:04:41;;;;;;;2.97;1.40;;;5.60;99.90;;;;;;4937806;29;20225;-92
2023/03/30 09:07:18;;;;;;;2.83;1.27;;;5.60;99.90;;;;;;4936082;29;20230;-92
2023/03/30 09:09:51;;;;;;;5.13;1.30;;;5.70;99.90;;;;;;4932679;29;20328;-92
2023/03/30 09:12:32;;;;;;;1.53;1.33;;;5.70;99.90;;;;;;4918221;29;20209;-92
2023/03/30 09:15:09;;;;;;;1.60;1.20;;;5.80;99.90;;;;;;4920760;29;20212;-93
2023/03/30 09:17:46;;;;;;;2.60;1.50;;;5.80;99.90;;;;;;4922781;29;20299;-93
2023/03/30 09:20:24;;;;;;;2.03;1.60;;;5.90;99.90;;;;;;4928693;29;20209;-92
2023/03/30 09:22:56;;;;;;;2.40;1.37;;;5.90;99.90;;;;;;4937779;29;20228;-94
2023/03/30 09:25:34;;;;;;;2.47;1.50;;;6.00;99.90;;;;;;4927003;29;20299;-93
2023/03/30 09:28:13;;;;;;;1.67;1.57;;;6.00;99.90;;;;;;4934048;29;20352;-93
2023/03/30 09:30:51;;;;;;;3.43;1.60;;;6.00;99.90;;;;;;4941717;29;20230;-94
2023/03/30 09:33:30;;;;;;;2.13;1.60;;;6.10;99.90;;;;;;4941114;28;20216;-93
2023/03/30 09:36:11;;;;;;;2.53;1.20;;;6.10;99.90;;;;;;4941636;29;20310;-93
2023/03/30 09:38:42;;;;;;;1.63;1.30;;;6.10;99.90;;;;;;4940048;29;20659;-94
2023/03/30 09:41:32;;;;;;;4.20;1.43;;;6.10;99.90;;;;;;4941081;29;20208;-93
2023/03/30 09:44:03;;;;;;;3.10;1.80;;;6.20;99.90;;;;;;4940673;29;20216;-93
2023/03/30 09:46:35;;;;;;;2.73;1.77;;;6.20;99.90;;;;;;4940993;29;20213;-93
2023/03/30 09:49:17;;;;;;;2.90;1.70;;;6.20;99.90;;;;;;4940807;29;20246;-92
2023/03/30 09:52:05;;;;;;;2.20;1.70;;;6.20;99.90;;;;;;4940794;29;20610;-91
2023/03/30 09:54:39;;;;;;;2.70;1.40;;;6.20;99.90;;;;;;4940713;29;20208;-91
2023/03/30 09:57:26;;;;;;;1.57;1.40;;;6.30;99.90;;;;;;4940500;29;20235;-91
2023/03/30 09:59:58;;;;;;;2.90;1.67;;;6.30;99.90;;;;;;4940998;29;20211;-91
2023/03/30 10:02:32;;;;;;;1.73;1.30;;;6.30;99.90;;;;;;4922089;29;20308;-91
2023/03/30 10:05:05;;;;;;;4.53;2.00;;;6.30;99.90;;;;;;4947020;29;20278;-91
2023/03/30 10:07:42;;;;;;;4.40;1.70;;;6.30;99.90;;;;;;4958508;29;20196;-91
2023/03/30 10:10:25;;;;;;;1.87;1.47;;;6.30;99.90;;;;;;4950220;29;20621;-91
2023/03/30 10:13:02;;;;;;;5.97;1.53;;;6.30;99.90;;;;;;4940075;29;20217;-91
2023/03/30 10:15:36;;;;;;;2.03;1.43;;;6.40;99.90;;;;;;4940057;29;20212;-92
2023/03/30 10:18:23;;;;;;;1.70;1.50;;;6.40;99.90;;;;;;4938504;29;20334;-91
2023/03/30 10:20:55;;;;;;;5.17;1.77;;;6.40;99.90;;;;;;4939737;29;20222;-91
2023/03/30 10:23:33;;;;;;;4.63;1.77;;;6.40;99.90;;;;;;4940480;29;20566;-92
2023/03/30 10:26:07;;;;;;;3.27;1.73;;;6.40;99.90;;;;;;4939739;29;20215;-93
2023/03/30 10:28:40;;;;;;;1.93;1.60;;;6.40;99.90;;;;;;4939101;29;20219;-92
2023/03/30 10:31:16;;;;;;;1.83;1.47;;;6.40;99.90;;;;;;4939974;29;20213;-93
2023/03/30 10:33:49;;;;;;;2.87;1.53;;;6.40;99.90;;;;;;4939668;29;20271;-92
2023/03/30 10:36:21;;;;;;;2.93;1.30;;;6.40;99.90;;;;;;4939696;29;20307;-93
2023/03/30 10:38:54;;;;;;;1.97;1.30;;;6.40;99.90;;;;;;4938831;29;20212;-93
2023/03/30 10:41:26;;;;;;;3.20;1.63;;;6.40;99.90;;;;;;4939633;29;20212;-93
2023/03/30 10:43:58;;;;;;;2.40;1.67;;;6.40;99.90;;;;;;4938583;29;20207;-92
2023/03/30 10:46:31;;;;;;;2.93;1.50;;;6.40;99.90;;;;;;4938650;29;20212;-94
2023/03/30 10:49:21;;;;;;;2.30;1.57;;;6.40;99.90;;;;;;4939330;29;20204;-90
2023/03/30 10:52:03;;;;;;;3.17;1.50;;;6.50;99.90;;;;;;4935512;29;20256;-92
2023/03/30 10:54:42;;;;;;;4.00;1.77;;;6.50;99.90;;;;;;4920420;29;20672;-92
2023/03/30 10:57:17;;;;;;;1.80;1.20;;;6.50;99.90;;;;;;4921060;29;20300;-95
2023/03/30 11:00:10;;;;;;;2.10;1.60;;;6.50;99.90;;;;;;4920310;29;20213;-93
2023/03/30 11:02:50;;;;;;;2.63;1.30;;;6.50;99.90;;;;;;4919113;29;20237;-92
2023/03/30 11:05:28;;;;;;;1.80;1.60;;;6.50;99.90;;;;;;4920934;29;20291;-92
2023/03/30 11:08:05;;;;;;;2.30;1.70;;;6.50;99.90;;;;;;4919071;29;20205;-92
2023/03/30 11:10:40;;;;;;;1.83;1.50;;;6.50;99.90;;;;;;4919680;29;20247;-92
2023/03/30 11:13:16;;;;;;;2.33;1.70;;;6.50;99.90;;;;;;4919771;29;20240;-92
2023/03/30 11:15:51;;;;;;;2.60;1.63;;;6.50;99.90;;;;;;4919981;29;20205;-92
2023/03/30 11:18:28;;;;;;;3.50;1.93;;;6.50;99.90;;;;;;4918617;29;20232;-92
2023/03/30 11:21:03;;;;;;;2.07;1.40;;;6.50;99.90;;;;;;4919641;29;20211;-91
2023/03/30 11:23:43;;;;;;;2.60;1.77;;;6.40;99.90;;;;;;4919627;29;20240;-91
2023/03/30 11:26:21;;;;;;;3.57;1.40;;;6.50;99.90;;;;;;4927776;29;20299;-93
2023/03/30 11:29:00;;;;;;;5.57;1.57;;;6.50;99.90;;;;;;4937853;29;20212;-93
2023/03/30 11:31:52;;;;;;;3.03;1.50;;;6.40;99.90;;;;;;4938227;29;20208;-92
2023/03/30 11:34:31;;;;;;;4.47;1.53;;;6.40;99.90;;;;;;4938750;29;20291;-93
2023/03/30 11:37:11;;;;;;;3.03;1.50;;;6.40;99.90;;;;;;4937772;29;20234;-93
2023/03/30 11:39:48;;;;;;;2.00;1.50;;;6.40;99.90;;;;;;4938286;29;20573;-93
2023/03/30 11:42:26;;;;;;;1.87;1.47;;;6.40;99.90;;;;;;4938593;29;20210;-93
2023/03/30 11:44:58;;;;;;;3.63;1.40;;;6.40;99.90;;;;;;4938420;29;20215;-94
2023/03/30 11:47:51;;;;;;;2.90;1.53;;;6.40;99.90;;;;;;4937451;29;20308;-93
2023/03/30 11:50:36;;;;;;;1.80;1.40;;;6.50;99.90;;;;;;4938311;29;20212;-93
2023/03/30 11:53:17;;;;;;;4.10;1.50;;;6.60;99.90;;;;;;4938391;29;20291;-92
2023/03/30 11:55:57;;;;;;;1.87;1.23;;;6.60;99.90;;;;;;4938546;29;20212;-92
2023/03/30 11:58:37;;;;;;;3.13;1.40;;;6.60;99.90;;;;;;4938088;29;20236;-93
2023/03/30 12:01:39;;;;;;;3.53;1.43;;;6.50;99.90;;;;;;4956260;29;20203;-91
2023/03/30 12:04:13;;;;;;;3.03;1.73;;;6.50;99.90;;;;;;4957511;28;20258;-91
2023/03/30 12:06:52;;;;;;;1.50;1.20;;;6.50;99.90;;;;;;4957969;28;20204;-91
2023/03/30 12:09:28;;;;;;;2.37;1.80;;;6.50;99.90;;;;;;4968117;28;20223;-91
2023/03/30 12:12:10;;;;;;;1.90;1.50;;;6.50;99.90;;;;;;4956957;29;20196;-92
2023/03/30 12:14:54;;;;;;;3.83;1.43;;;6.50;99.90;;;;;;4943476;29;20294;-92
2023/03/30 12:17:37;;;;;;;1.60;1.40;;;6.60;99.90;;;;;;4929824;29;20244;-92
2023/03/30 12:20:18;;;;;;;2.33;1.60;;;6.50;99.90;;;;;;4919050;29;20219;-92
2023/03/30 12:22:57;;;;;;;2.60;1.70;;;6.60;99.90;;;;;;4920140;29;20216;-92
2023/03/30 12:25:42;;;;;;;2.93;1.63;;;6.60;99.90;;;;;;4919308;29;20859;-91
2023/03/30 12:28:15;;;;;;;2.23;1.50;;;6.60;99.90;;;;;;4918182;29;20300;-91
2023/03/30 12:30:56;;;;;;;5.03;1.70;;;6.60;99.90;;;;;;4919339;29;20204;-93
2023/03/30 12:33:35;;;;;;;2.83;1.70;;;6.60;99.90;;;;;;4919800;29;20282;-93
2023/03/30 12:36:25;;;;;;;2.00;1.40;;;6.60;99.90;;;;;;4920456;29;20217;-93
2023/03/30 12:39:01;;;;;;;3.83;1.60;;;6.70;99.90;;;;;;4920359;29;20321;-90
2023/03/30 12:41:43;;;;;;;3.17;1.73;;;6.80;99.90;;;;;;4953139;29;20203;-93
2023/03/30 12:44:41;;;;;;;2.90;1.67;;;6.90;99.90;;;;;;4942645;29;20302;-93
2023/03/30 12:47:47;;;;;;;3.27;1.30;;;7.00;99.90;;;;;;4937634;29;20686;-94
2023/03/30 12:50:31;;;;;;;2.13;1.37;;;7.10;99.90;;;;;;4937651;29;20236;-93
2023/03/30 12:53:22;;;;;;;2.83;1.60;;;7.20;99.90;;;;;;4938266;29;20576;-92
2023/03/30 12:56:05;;;;;;;1.50;1.20;;;7.20;99.90;;;;;;4938986;29;20218;-93
2023/03/30 12:58:55;;;;;;;2.30;1.40;;;7.20;99.90;;;;;;4956951;28;20243;-92
2023/03/30 13:01:41;;;;;;;2.50;1.57;;;7.20;99.90;;;;;;4957069;28;20212;-94
2023/03/30 13:04:18;;;;;;;3.53;1.60;;;7.20;99.90;;;;;;4956629;28;20270;-92
2023/03/30 13:06:56;;;;;;;2.23;1.40;;;7.10;99.90;;;;;;4957022;28;20340;-91
2023/03/30 13:09:52;;;;;;;3.57;1.50;;;7.10;99.90;;;;;;4933170;28;20204;-91
2023/03/30 13:12:34;;;;;;;3.23;1.70;;;7.10;99.90;;;;;;4938196;29;20718;-90
2023/03/30 13:15:23;;;;;;;4.77;1.70;;;7.10;99.90;;;;;;4937591;29;20208;-91
2023/03/30 13:18:00;;;;;;;2.17;1.57;;;7.10;99.90;;;;;;4936226;29;20235;-91
2023/03/30 13:20:36;;;;;;;3.17;1.67;;;7.10;99.90;;;;;;4927315;29;20299;-91
2023/03/30 13:23:26;;;;;;;3.80;1.60;;;7.00;99.90;;;;;;4925560;29;20238;-92
2023/03/30 13:26:21;;;;;;;2.97;1.90;;;7.00;99.90;;;;;;4941221;29;20241;-93
2023/03/30 13:29:10;;;;;;;2.47;1.60;;;6.90;99.90;;;;;;4954571;29;20337;-92
2023/03/30 13:32:08;;;;;;;3.83;2.10;;;6.90;99.90;;;;;;4956974;29;20275;-91
2023/03/30 13:35:07;;;;;;;4.77;1.73;;;6.80;99.90;;;;;;4951385;29;20223;-91
2023/03/30 13:37:55;;;;;;;4.63;1.80;;;6.80;99.90;;;;;;4933492;29;20592;-90
2023/03/30 13:40:31;;;;;;;3.83;1.63;;;6.80;99.90;;;;;;4943219;29;20221;-91
2023/03/30 13:43:21;;;;;;;2.37;1.53;;;6.70;99.90;;;;;;4937993;29;20287;-91